メインページ
METAR-TAF:

METAR-TAF

空港 :

テルアビブ / ベン・グリオン, イスラエル

ベン・グリオン国際空港

緯度: 32-00N, 経度: 034-54E, 海抜: 40m

現時点の気象観測

当レポートは20分前の23:20(UTC)に作成
西/北西の風 5kt
気温 17°C
湿度 52%
気圧 1018 hPa
視程10km以上
1,500メートル以下は雲なし、積乱雲なし

METAR: LLBG 232320Z 29005KT CAVOK 17/07 Q1018 NOSIG RMK BKN050

時間: 02:40 (23:40 UTC)

予報

当レポートは6時間37分前の17:03(UTC)に作成
予報は23日の 18時(UTC)から 24日の 18時(UTC)まで有効
西/北西の風 10kt
視程10km以上
高度3500ftの雲は散在している
23日の 20時(UTC)から 23日の 22時(UTC)まで徐々に
変向風 3kt
24日の 06時(UTC)から 24日の 08時(UTC)まで徐々に
西/北西の風 12kt
高度3000ftの雲はほとんどない

TAF: LLBG 231703Z 2318/2418 30010KT 9999 SCT035 BECMG 2320/2322 VRB03KT BECMG 2406/2408 30012KT FEW030 TX23/2410Z TN15/2404Z

4,000以上の空港の気象観測と天気予報(METAR報とTAF報)

利用可能な観測所は地図上に黄色い丸と赤い丸で示す。

丸の上にカーソルを重ねると観測所名を参照できる。

次にクリックすると気象観測と天気予報を参照できる。

マップの切り替え:黒色「×」印の緑ボタンをクリックして拡大、「-」印の緑ボタンをクリックして縮小、緑色の三角印をクリックして隣りの地図に切り替え


METAR-TAF: